Time;durP1;ratioP1;P1;durP2;ratioP2;P2;SDS_P1;SDS_P2;PMS_P1;PMS_P2;Temp;Humidity;BMP_temperature;BMP_pressure;BME280_temperature;BME280_humidity;BME280_pressure;Samples;Min_cycle;Max_cycle;Signal;HPM_P1;HPM_P2
2023/10/11 00:00:58;;;;;;;34.42;14.45;;;16.70;99.90;;;;;;5101054;28;20055;-83
2023/10/11 00:05:53;;;;;;;33.97;13.75;;;16.80;99.90;;;;;;5113018;28;20051;-83
2023/10/11 00:08:25;;;;;;;37.37;15.17;;;16.70;99.90;;;;;;5098998;28;20044;-81
2023/10/11 00:10:59;;;;;;;36.92;14.27;;;16.80;99.90;;;;;;5075981;28;20389;-83
2023/10/11 00:13:36;;;;;;;44.45;15.73;;;16.80;99.90;;;;;;5087244;28;20048;-80
2023/10/11 00:16:09;;;;;;;39.58;15.75;;;16.90;99.90;;;;;;5104563;28;20048;-80
2023/10/11 00:18:37;;;;;;;33.53;14.45;;;16.80;99.90;;;;;;5090890;28;20045;-80
2023/10/11 00:21:15;;;;;;;33.47;16.10;;;16.80;99.90;;;;;;5111900;28;20048;-80
2023/10/11 00:23:46;;;;;;;37.75;13.25;;;16.80;99.90;;;;;;5101786;28;20054;-80
2023/10/11 00:26:17;;;;;;;35.42;15.88;;;16.80;99.90;;;;;;5096157;28;20076;-81
2023/10/11 00:28:43;;;;;;;32.55;15.88;;;16.80;99.90;;;;;;5099123;28;20047;-81
2023/10/11 00:31:16;;;;;;;39.35;14.93;;;16.80;99.90;;;;;;5096696;28;20055;-81
2023/10/11 00:33:43;;;;;;;38.28;15.02;;;16.80;99.90;;;;;;5107746;28;20052;-81
2023/10/11 00:36:21;;;;;;;36.05;16.10;;;16.90;99.90;;;;;;5103760;28;20051;-81
2023/10/11 00:38:47;;;;;;;38.10;15.30;;;16.80;99.90;;;;;;5090453;28;20481;-82
2023/10/11 00:41:25;;;;;;;40.85;16.27;;;16.90;99.90;;;;;;5089380;28;20099;-81
2023/10/11 00:43:52;;;;;;;39.55;16.25;;;16.80;99.90;;;;;;5094305;28;20063;-82
2023/10/11 00:46:29;;;;;;;32.00;14.88;;;16.90;99.90;;;;;;5102197;28;20197;-81
2023/10/11 00:49:12;;;;;;;37.22;15.38;;;16.90;99.90;;;;;;5115244;28;20052;-82
2023/10/11 00:51:41;;;;;;;40.55;15.05;;;16.80;99.90;;;;;;5068196;28;20047;-80
2023/10/11 00:54:12;;;;;;;39.90;15.50;;;16.90;99.90;;;;;;5095965;28;20044;-82
2023/10/11 00:56:43;;;;;;;41.22;15.40;;;17.40;99.90;;;;;;5093520;28;20121;-81
2023/10/11 00:59:14;;;;;;;45.20;16.52;;;17.00;99.90;;;;;;5096549;28;20057;-80
2023/10/11 01:01:44;;;;;;;45.92;16.83;;;16.90;99.90;;;;;;5089888;28;20040;-80
2023/10/11 01:04:10;;;;;;;48.55;16.08;;;16.90;99.90;;;;;;5111979;28;20055;-82
2023/10/11 01:06:36;;;;;;;40.20;16.40;;;16.90;99.90;;;;;;5105401;28;20040;-83
2023/10/11 01:09:09;;;;;;;41.13;15.05;;;16.90;99.90;;;;;;5090700;28;20107;-81
2023/10/11 01:11:35;;;;;;;38.85;15.90;;;16.90;99.90;;;;;;5107962;28;20048;-81
2023/10/11 01:14:00;;;;;;;41.58;16.05;;;16.80;99.90;;;;;;5109053;28;20069;-81
2023/10/11 01:16:28;;;;;;;51.58;17.33;;;16.80;99.90;;;;;;5112887;28;20138;-81
2023/10/11 01:19:07;;;;;;;45.15;17.15;;;16.80;99.90;;;;;;5102010;28;20075;-82
2023/10/11 01:21:34;;;;;;;41.20;15.40;;;16.80;99.90;;;;;;5092709;28;20104;-81
2023/10/11 01:23:59;;;;;;;44.65;15.25;;;16.80;99.90;;;;;;5089851;28;20048;-81
2023/10/11 01:26:27;;;;;;;38.08;15.82;;;16.80;99.90;;;;;;5109479;28;20072;-80
2023/10/11 01:28:56;;;;;;;35.60;15.57;;;16.80;99.90;;;;;;5104190;28;20036;-82
2023/10/11 01:31:22;;;;;;;38.92;16.33;;;16.80;99.90;;;;;;5117577;28;20177;-82
2023/10/11 01:33:52;;;;;;;42.92;14.82;;;16.80;99.90;;;;;;5097086;28;20139;-81
2023/10/11 01:36:21;;;;;;;37.08;15.32;;;16.80;99.90;;;;;;5107095;28;20394;-82
2023/10/11 01:38:47;;;;;;;43.05;15.30;;;16.80;99.90;;;;;;5090012;28;20055;-81
2023/10/11 01:41:19;;;;;;;40.28;15.63;;;16.80;99.90;;;;;;5100130;28;20398;-81
2023/10/11 01:43:46;;;;;;;46.95;15.63;;;16.80;99.90;;;;;;5091080;28;20048;-81
2023/10/11 01:46:19;;;;;;;43.72;16.15;;;16.80;99.90;;;;;;5096459;28;20040;-81
2023/10/11 01:48:45;;;;;;;42.08;15.02;;;16.80;99.90;;;;;;5095088;28;20044;-82
2023/10/11 01:51:12;;;;;;;42.80;15.05;;;16.80;99.90;;;;;;5086683;28;20037;-79
2023/10/11 01:53:41;;;;;;;45.08;15.98;;;16.80;99.90;;;;;;5105101;28;20055;-81
2023/10/11 01:56:07;;;;;;;42.28;14.95;;;16.80;99.90;;;;;;5109922;28;20036;-81
2023/10/11 01:58:37;;;;;;;39.47;15.27;;;16.80;99.90;;;;;;5099998;28;20521;-81
2023/10/11 02:01:05;;;;;;;42.88;15.73;;;16.80;99.90;;;;;;5101813;28;20056;-82
2023/10/11 02:03:31;;;;;;;36.08;14.90;;;16.80;99.90;;;;;;5090203;28;20459;-81
2023/10/11 02:05:57;;;;;;;41.03;13.88;;;16.70;99.90;;;;;;5100975;28;20036;-81
2023/10/11 02:08:25;;;;;;;50.75;15.45;;;16.70;99.90;;;;;;5099846;28;20036;-82
2023/10/11 02:10:51;;;;;;;39.75;15.02;;;16.70;99.90;;;;;;5082782;28;20039;-81
2023/10/11 02:13:17;;;;;;;38.42;14.23;;;17.20;99.90;;;;;;5108031;28;20040;-83
2023/10/11 02:15:47;;;;;;;38.25;15.60;;;16.80;99.90;;;;;;5094453;28;20058;-81
2023/10/11 02:18:13;;;;;;;38.20;14.98;;;16.80;99.90;;;;;;5069800;28;20074;-81
2023/10/11 02:20:45;;;;;;;51.05;15.18;;;16.80;99.90;;;;;;5101275;28;20048;-83
2023/10/11 02:23:11;;;;;;;46.05;15.13;;;17.40;99.90;;;;;;5099822;28;20059;-81
2023/10/11 02:25:38;;;;;;;40.55;14.18;;;16.70;99.90;;;;;;5094996;28;20056;-80
2023/10/11 02:28:09;;;;;;;44.70;14.55;;;16.70;99.90;;;;;;5097596;28;20036;-81
2023/10/11 02:30:38;;;;;;;40.97;14.70;;;16.60;99.90;;;;;;5090923;28;20035;-80
2023/10/11 02:33:07;;;;;;;34.60;13.88;;;16.70;99.90;;;;;;5102931;28;20082;-81
2023/10/11 02:35:52;;;;;;;47.08;15.35;;;16.70;99.90;;;;;;5113506;28;20048;-80
2023/10/11 02:38:23;;;;;;;40.33;14.55;;;16.70;99.90;;;;;;5129196;28;20066;-80
2023/10/11 02:40:56;;;;;;;38.45;14.00;;;16.60;99.90;;;;;;5121957;28;20095;-80
2023/10/11 02:43:27;;;;;;;41.95;15.13;;;16.70;99.90;;;;;;5110899;28;20032;-81
2023/10/11 02:45:53;;;;;;;40.28;14.30;;;16.70;99.90;;;;;;5113500;28;20044;-78
2023/10/11 02:48:22;;;;;;;39.17;16.60;;;16.60;99.90;;;;;;5114607;28;20039;-79
2023/10/11 02:50:54;;;;;;;39.45;15.23;;;16.60;99.90;;;;;;5114597;28;20377;-81
2023/10/11 02:53:23;;;;;;;40.72;15.70;;;16.60;99.90;;;;;;5132287;28;20052;-79
2023/10/11 02:55:58;;;;;;;40.15;14.77;;;16.60;99.90;;;;;;5114336;28;20158;-79
2023/10/11 02:58:26;;;;;;;41.70;15.15;;;16.50;99.90;;;;;;5116321;28;20057;-79
2023/10/11 03:00:57;;;;;;;34.80;14.23;;;16.50;99.90;;;;;;5114855;28;20366;-80
2023/10/11 03:03:23;;;;;;;43.47;15.68;;;16.50;99.90;;;;;;5115323;28;20048;-80
2023/10/11 03:05:48;;;;;;;41.80;15.55;;;16.50;99.90;;;;;;5115672;28;20058;-80
2023/10/11 03:08:15;;;;;;;42.75;15.38;;;16.50;99.90;;;;;;5113349;28;20083;-80
2023/10/11 03:10:53;;;;;;;41.85;16.02;;;16.80;99.90;;;;;;5093657;28;20060;-81
2023/10/11 03:13:24;;;;;;;40.67;15.98;;;16.50;99.90;;;;;;5086737;28;20043;-81
2023/10/11 03:15:59;;;;;;;38.55;16.13;;;16.50;99.90;;;;;;5095448;28;20044;-81
2023/10/11 03:18:32;;;;;;;37.85;15.52;;;16.50;99.90;;;;;;5098361;28;20059;-81
2023/10/11 03:21:08;;;;;;;48.72;15.77;;;16.50;99.90;;;;;;5106695;28;20319;-80
2023/10/11 03:23:47;;;;;;;36.53;14.57;;;16.50;99.90;;;;;;5091812;28;20040;-82
2023/10/11 03:29:03;;;;;;;44.95;15.43;;;16.50;99.90;;;;;;5102713;28;20048;-81
2023/10/11 03:31:42;;;;;;;36.63;14.65;;;16.50;99.90;;;;;;5104162;28;20078;-80
2023/10/11 03:34:11;;;;;;;;;;;16.50;99.90;;;;;;5091843;28;20127;-81
2023/10/11 03:36:49;;;;;;;34.80;15.30;;;16.50;99.90;;;;;;5102860;28;19959;-83
2023/10/11 03:42:07;;;;;;;42.05;15.68;;;16.50;99.90;;;;;;5093306;28;20190;-80
2023/10/11 03:44:35;;;;;;;47.63;15.77;;;16.50;99.90;;;;;;5090413;28;20048;-81
2023/10/11 03:47:08;;;;;;;44.17;15.02;;;16.50;99.90;;;;;;5110193;28;20040;-82
2023/10/11 03:49:49;;;;;;;37.22;14.93;;;16.50;99.90;;;;;;5108785;28;20044;-81
2023/10/11 03:54:47;;;;;;;41.90;15.77;;;16.80;99.90;;;;;;5084946;28;20052;-81
2023/10/11 03:57:17;;;;;;;43.80;14.30;;;16.50;99.90;;;;;;5097393;28;20040;-80
2023/10/11 03:59:48;;;;;;;43.85;15.35;;;16.50;99.90;;;;;;5112562;28;20103;-81
2023/10/11 04:02:17;;;;;;;35.22;13.85;;;16.40;99.90;;;;;;5109965;28;20447;-81
2023/10/11 04:04:48;;;;;;;44.20;15.23;;;16.40;99.90;;;;;;5095148;28;20075;-81
2023/10/11 04:07:15;;;;;;;37.58;13.90;;;16.40;99.90;;;;;;5105604;28;20126;-79
2023/10/11 04:09:44;;;;;;;30.48;13.50;;;16.40;99.90;;;;;;5102250;28;20028;-80
2023/10/11 04:12:10;;;;;;;34.78;13.10;;;16.50;99.90;;;;;;5107441;27;20109;-80
2023/10/11 04:14:45;;;;;;;33.55;13.60;;;16.40;99.90;;;;;;5110656;28;20041;-81
2023/10/11 04:19:48;;;;;;;40.63;13.27;;;16.60;99.90;;;;;;5086025;28;20050;-81
2023/10/11 04:22:35;;;;;;;36.22;13.70;;;16.30;99.90;;;;;;5098507;28;20072;-81
2023/10/11 04:25:09;;;;;;;40.05;14.07;;;16.40;99.90;;;;;;5085248;28;20053;-82
2023/10/11 04:30:17;;;;;;;37.72;13.43;;;16.30;99.90;;;;;;5113439;28;20079;-81
2023/10/11 04:32:46;;;;;;;41.25;13.95;;;16.30;99.90;;;;;;5098852;28;20075;-81
2023/10/11 04:35:36;;;;;;;38.63;14.00;;;16.30;99.90;;;;;;5108627;28;20094;-81
2023/10/11 04:38:04;;;;;;;32.30;13.35;;;16.30;99.90;;;;;;5103905;28;20118;-81
2023/10/11 04:43:04;;;;;;;30.70;13.25;;;16.30;99.90;;;;;;5097716;28;20045;-81
2023/10/11 04:45:46;;;;;;;38.58;13.50;;;16.30;99.90;;;;;;5115876;28;20047;-80
2023/10/11 04:48:29;;;;;;;35.45;12.90;;;16.30;99.90;;;;;;5108776;28;20044;-83
2023/10/11 04:50:55;;;;;;;36.50;12.77;;;16.30;99.90;;;;;;5106486;28;20061;-82
2023/10/11 04:53:27;;;;;;;35.90;12.85;;;16.30;99.90;;;;;;5096700;28;20040;-79
2023/10/11 04:55:59;;;;;;;40.97;13.25;;;16.30;99.90;;;;;;5094901;28;20079;-81
2023/10/11 04:58:41;;;;;;;39.58;13.77;;;16.60;99.90;;;;;;5093264;28;20063;-82
2023/10/11 05:01:11;;;;;;;40.10;12.80;;;16.30;99.90;;;;;;5111731;27;20108;-80
2023/10/11 05:03:42;;;;;;;36.72;13.65;;;16.30;99.90;;;;;;5104823;28;20044;-81
2023/10/11 05:06:16;;;;;;;36.35;12.18;;;16.30;99.90;;;;;;5114125;28;20044;-83
2023/10/11 05:08:51;;;;;;;39.15;13.05;;;16.30;99.90;;;;;;5107277;28;20036;-83
2023/10/11 05:11:36;;;;;;;42.13;11.77;;;16.30;99.90;;;;;;5107359;28;20046;-81
2023/10/11 05:14:10;;;;;;;35.30;12.27;;;16.20;99.90;;;;;;5101608;28;20041;-80
2023/10/11 05:16:38;;;;;;;35.90;11.57;;;16.30;99.90;;;;;;5092914;28;20053;-81
2023/10/11 05:19:05;;;;;;;33.58;11.30;;;16.30;99.90;;;;;;5107640;28;20041;-81
2023/10/11 05:21:38;;;;;;;32.35;13.00;;;16.30;99.90;;;;;;5105942;28;20044;-81
2023/10/11 05:32:32;;;;;;;35.53;12.60;;;16.30;99.90;;;;;;5097858;28;20107;-81
2023/10/11 05:51:26;;;;;;;38.05;13.20;;;16.40;99.90;;;;;;5096472;28;20063;-81
2023/10/11 05:53:53;;;;;;;38.85;13.45;;;16.40;99.90;;;;;;5095320;28;20103;-81
2023/10/11 05:56:21;;;;;;;41.33;12.35;;;16.50;99.90;;;;;;5085095;28;20040;-81
2023/10/11 05:58:53;;;;;;;46.60;12.73;;;16.50;99.90;;;;;;5106889;28;20052;-81
2023/10/11 06:01:22;;;;;;;42.95;13.55;;;16.50;99.90;;;;;;5103944;28;20040;-82
2023/10/11 06:03:51;;;;;;;32.22;12.52;;;16.50;99.90;;;;;;5097731;28;20056;-82
2023/10/11 06:06:23;;;;;;;34.38;12.65;;;16.50;99.90;;;;;;5080809;28;20048;-83
2023/10/11 06:08:58;;;;;;;38.80;13.65;;;16.50;99.90;;;;;;5088551;28;20052;-82
2023/10/11 06:11:29;;;;;;;33.60;12.60;;;16.80;99.90;;;;;;5100795;28;20067;-81
2023/10/11 06:13:55;;;;;;;36.33;13.35;;;16.60;99.90;;;;;;5088002;28;20063;-81
2023/10/11 06:16:24;;;;;;;37.33;13.13;;;16.50;99.90;;;;;;5105083;28;20156;-81
2023/10/11 06:18:56;;;;;;;36.92;12.80;;;16.60;99.90;;;;;;5104145;28;20084;-81
2023/10/11 06:21:31;;;;;;;26.15;11.50;;;16.60;99.90;;;;;;5084384;28;20041;-81
2023/10/11 06:23:57;;;;;;;39.60;13.45;;;16.60;99.90;;;;;;5101597;28;20045;-82
2023/10/11 06:26:52;;;;;;;46.65;13.18;;;16.60;99.90;;;;;;5101180;28;20116;-81
2023/10/11 06:29:18;;;;;;;39.85;12.98;;;16.70;99.90;;;;;;5110086;28;20062;-81
2023/10/11 06:31:43;;;;;;;39.15;13.35;;;16.60;99.90;;;;;;5119287;27;20048;-80
2023/10/11 06:34:15;;;;;;;34.42;12.98;;;16.80;99.90;;;;;;5092501;28;20113;-83
2023/10/11 06:36:51;;;;;;;38.70;14.00;;;16.70;99.90;;;;;;5104246;28;20130;-80
2023/10/11 06:40:08;;;;;;;30.10;12.43;;;16.70;99.90;;;;;;5082332;28;20093;-80
2023/10/11 06:42:21;;;;;;;38.35;12.02;;;16.70;99.90;;;;;;5105753;28;20044;-81
2023/10/11 06:44:57;;;;;;;43.92;13.90;;;16.70;99.90;;;;;;5122303;28;20040;-80
2023/10/11 06:47:24;;;;;;;42.55;12.13;;;16.70;99.90;;;;;;5116671;28;20051;-80
2023/10/11 06:49:55;;;;;;;32.00;11.88;;;16.80;99.90;;;;;;5115172;28;20052;-80
2023/10/11 06:52:26;;;;;;;29.75;12.35;;;16.70;99.90;;;;;;5124800;28;20036;-81
2023/10/11 06:55:13;;;;;;;32.50;11.85;;;16.70;99.90;;;;;;5129833;28;20095;-81
2023/10/11 06:57:40;;;;;;;36.10;12.02;;;16.80;99.90;;;;;;5096508;28;20044;-80
2023/10/11 07:00:23;;;;;;;37.92;12.60;;;16.80;99.90;;;;;;5128625;28;20082;-78
2023/10/11 07:02:52;;;;;;;33.20;11.40;;;16.80;99.90;;;;;;5106598;28;20044;-78
2023/10/11 07:05:20;;;;;;;40.42;12.05;;;16.80;99.90;;;;;;5106467;28;20185;-80
2023/10/11 07:07:49;;;;;;;32.80;12.20;;;16.80;99.90;;;;;;5106039;28;20062;-79
2023/10/11 07:10:32;;;;;;;26.70;10.52;;;16.80;99.90;;;;;;5102294;28;20048;-79
2023/10/11 07:13:05;;;;;;;27.65;10.40;;;16.90;99.90;;;;;;5068974;28;20462;-79
2023/10/11 07:15:42;;;;;;;34.90;11.32;;;16.90;99.90;;;;;;5106761;28;20122;-80
2023/10/11 07:18:10;;;;;;;31.65;10.88;;;16.90;99.90;;;;;;5086691;28;20062;-81
2023/10/11 07:20:57;;;;;;;27.75;10.32;;;17.10;99.90;;;;;;5105572;28;20044;-82
2023/10/11 07:23:55;;;;;;;27.90;10.40;;;17.00;99.90;;;;;;5105304;28;20040;-79
2023/10/11 07:29:03;;;;;;;31.73;10.90;;;17.10;99.90;;;;;;5087399;28;20048;-81
2023/10/11 07:31:35;;;;;;;34.55;10.75;;;17.10;99.90;;;;;;5099225;28;20044;-81
2023/10/11 07:34:06;;;;;;;28.25;9.98;;;17.10;99.90;;;;;;5103253;28;20036;-80
2023/10/11 07:36:39;;;;;;;30.02;10.35;;;17.20;99.90;;;;;;5091093;28;20048;-80
2023/10/11 07:39:25;;;;;;;28.27;10.43;;;17.20;99.90;;;;;;5084755;28;20040;-81
2023/10/11 07:44:31;;;;;;;33.60;11.15;;;17.20;99.90;;;;;;5101600;28;20052;-81
2023/10/11 07:46:57;;;;;;;29.77;10.50;;;17.20;99.90;;;;;;5110893;28;20111;-82
2023/10/11 07:49:24;;;;;;;27.60;10.45;;;17.20;99.90;;;;;;5093461;28;20039;-82
2023/10/11 07:51:58;;;;;;;27.83;11.18;;;17.30;99.90;;;;;;5080592;28;20040;-80
2023/10/11 07:54:25;;;;;;;23.58;10.13;;;17.30;99.90;;;;;;5100569;28;20457;-80
2023/10/11 07:56:55;;;;;;;32.22;10.75;;;17.40;99.90;;;;;;5092807;28;20040;-81
2023/10/11 07:59:27;;;;;;;29.85;10.95;;;17.30;99.90;;;;;;5083052;28;20106;-80
2023/10/11 08:01:59;;;;;;;29.55;10.35;;;17.40;99.90;;;;;;5087091;28;20037;-80
2023/10/11 08:04:29;;;;;;;31.52;10.88;;;17.40;99.90;;;;;;5089629;28;20475;-82
2023/10/11 08:07:06;;;;;;;31.52;11.65;;;17.50;99.90;;;;;;5102991;28;20047;-81
2023/10/11 08:09:52;;;;;;;26.15;10.45;;;17.50;99.90;;;;;;5097113;28;20040;-80
2023/10/11 08:12:21;;;;;;;34.22;11.88;;;17.40;99.90;;;;;;5081870;28;20049;-80
2023/10/11 08:14:47;;;;;;;27.65;11.27;;;17.50;99.90;;;;;;5080796;28;20117;-81
2023/10/11 08:17:19;;;;;;;32.50;11.00;;;17.40;99.90;;;;;;5096041;28;20147;-81
2023/10/11 08:19:46;;;;;;;36.80;11.68;;;17.40;99.90;;;;;;5119397;28;20122;-81
2023/10/11 08:22:16;;;;;;;24.77;10.33;;;17.40;99.90;;;;;;5101460;28;20096;-80
2023/10/11 08:24:47;;;;;;;30.55;10.55;;;17.50;99.90;;;;;;5079557;28;20370;-80
2023/10/11 08:27:14;;;;;;;27.00;10.27;;;17.50;99.90;;;;;;5109359;28;20048;-81
2023/10/11 08:29:43;;;;;;;24.08;11.13;;;17.50;99.90;;;;;;5110776;28;20037;-81
2023/10/11 08:32:13;;;;;;;26.90;11.10;;;17.50;99.90;;;;;;5098890;28;20044;-83
2023/10/11 08:34:46;;;;;;;26.30;9.90;;;17.50;99.90;;;;;;5083943;28;20042;-81
2023/10/11 08:37:14;;;;;;;21.23;9.60;;;17.50;99.90;;;;;;5084399;28;20362;-82
2023/10/11 08:39:46;;;;;;;29.23;9.93;;;17.50;99.90;;;;;;5082948;28;20442;-80
2023/10/11 08:42:14;;;;;;;29.75;10.20;;;17.60;99.90;;;;;;5089670;28;20122;-81
2023/10/11 08:44:45;;;;;;;23.95;10.15;;;17.50;99.90;;;;;;5104327;28;20040;-82
2023/10/11 08:47:19;;;;;;;26.35;9.85;;;17.70;99.90;;;;;;5125106;28;20036;-80
2023/10/11 08:49:51;;;;;;;24.65;9.88;;;17.60;99.90;;;;;;5126320;28;20115;-83
2023/10/11 08:52:30;;;;;;;22.17;9.98;;;17.50;99.90;;;;;;5110480;28;20093;-79
2023/10/11 08:54:58;;;;;;;26.73;9.85;;;17.50;99.90;;;;;;5100660;28;20060;-80
2023/10/11 08:57:25;;;;;;;20.05;9.43;;;17.50;99.90;;;;;;5101566;28;20051;-79
2023/10/11 08:59:57;;;;;;;25.60;10.88;;;17.50;99.90;;;;;;5085186;28;20104;-79
2023/10/11 09:02:24;;;;;;;25.67;10.38;;;17.50;99.90;;;;;;5084730;28;20059;-82
2023/10/11 09:05:07;;;;;;;25.73;9.95;;;17.40;99.90;;;;;;5115715;28;20124;-80
2023/10/11 09:07:44;;;;;;;20.15;9.85;;;17.40;99.90;;;;;;5080590;28;20076;-82
2023/10/11 09:10:28;;;;;;;23.33;9.68;;;17.30;99.90;;;;;;5118058;28;20033;-82
2023/10/11 09:12:58;;;;;;;21.52;8.52;;;17.30;99.90;;;;;;5110599;28;20037;-81
2023/10/11 09:15:42;;;;;;;13.60;7.50;;;17.30;99.90;;;;;;5097046;28;20047;-80
2023/10/11 09:18:18;;;;;;;16.65;8.73;;;17.30;99.90;;;;;;5089588;28;20084;-79
2023/10/11 09:21:09;;;;;;;16.73;7.85;;;17.30;99.90;;;;;;5082767;28;20044;-80
2023/10/11 09:23:39;;;;;;;13.00;7.97;;;17.30;99.90;;;;;;5098762;28;20115;-80
2023/10/11 09:26:10;;;;;;;13.23;7.35;;;17.40;99.90;;;;;;5088908;28;20048;-80
2023/10/11 09:28:40;;;;;;;13.70;7.47;;;17.40;99.90;;;;;;5112328;27;22048;-81
2023/10/11 09:31:11;;;;;;;16.52;7.38;;;17.70;99.90;;;;;;5102823;28;20069;-79
2023/10/11 09:33:41;;;;;;;14.50;6.70;;;17.50;99.90;;;;;;5096955;28;20615;-82
2023/10/11 09:36:08;;;;;;;18.02;6.93;;;17.50;99.90;;;;;;5107509;28;20135;-80
2023/10/11 09:38:41;;;;;;;14.60;6.90;;;17.60;99.90;;;;;;5119359;28;20067;-80
2023/10/11 09:41:07;;;;;;;14.07;6.47;;;17.60;99.90;;;;;;5110919;28;20389;-79
2023/10/11 09:43:42;;;;;;;17.13;7.43;;;17.70;99.90;;;;;;5107739;28;20032;-79
2023/10/11 09:46:11;;;;;;;15.07;7.00;;;17.70;99.90;;;;;;5099186;28;20044;-81
2023/10/11 09:48:41;;;;;;;16.85;6.93;;;17.80;99.90;;;;;;5090234;28;20101;-79
2023/10/11 09:51:14;;;;;;;19.27;7.72;;;17.80;99.90;;;;;;5092810;28;20048;-80
2023/10/11 09:53:49;;;;;;;16.13;7.05;;;17.80;99.90;;;;;;5091849;28;20046;-80
2023/10/11 09:56:32;;;;;;;16.92;6.82;;;17.80;99.90;;;;;;5104276;28;20048;-80
2023/10/11 09:59:05;;;;;;;18.25;7.28;;;17.80;99.90;;;;;;5097059;28;20049;-80
2023/10/11 10:01:51;;;;;;;18.88;6.32;;;17.80;99.90;;;;;;5106893;28;20051;-80
2023/10/11 10:04:20;;;;;;;15.82;7.00;;;17.80;99.90;;;;;;5105962;28;20043;-80
2023/10/11 10:07:12;;;;;;;17.35;7.03;;;18.20;99.90;;;;;;5070429;28;20048;-80
2023/10/11 10:09:52;;;;;;;14.32;7.32;;;17.90;99.90;;;;;;5092463;28;20105;-80
2023/10/11 10:12:22;;;;;;;12.68;6.75;;;17.90;99.90;;;;;;5104777;28;20040;-80
2023/10/11 10:15:00;;;;;;;17.60;6.95;;;18.00;99.90;;;;;;5103223;28;20058;-80
2023/10/11 10:17:26;;;;;;;18.65;7.28;;;18.10;99.90;;;;;;5104938;28;20069;-81
2023/10/11 10:19:52;;;;;;;16.58;6.72;;;18.20;99.90;;;;;;5114675;28;20031;-80
2023/10/11 10:22:31;;;;;;;16.42;6.30;;;18.20;99.90;;;;;;5068916;28;20050;-79
2023/10/11 10:25:20;;;;;;;15.60;6.45;;;18.30;99.90;;;;;;5119479;28;20093;-80
2023/10/11 10:27:46;;;;;;;;;;;18.30;99.90;;;;;;5099782;28;20493;-80
2023/10/11 10:30:16;;;;;;;19.23;6.93;;;18.30;99.90;;;;;;5100425;28;19920;-80
2023/10/11 10:33:19;;;;;;;12.48;6.50;;;18.30;99.90;;;;;;5069753;28;20072;-80
2023/10/11 10:35:48;;;;;;;16.17;6.47;;;18.40;99.90;;;;;;5091622;28;20056;-81
2023/10/11 10:38:14;;;;;;;19.42;7.05;;;18.50;99.90;;;;;;5100763;28;20094;-80
2023/10/11 10:40:45;;;;;;;13.45;5.57;;;18.50;99.90;;;;;;5133408;28;20142;-80
2023/10/11 10:43:22;;;;;;;11.77;5.90;;;18.60;99.90;;;;;;5097625;28;20048;-80
2023/10/11 10:45:59;;;;;;;17.33;6.57;;;18.80;99.90;;;;;;5101897;28;20051;-80
2023/10/11 10:48:25;;;;;;;12.43;5.85;;;19.20;99.90;;;;;;5096603;28;20024;-80
2023/10/11 10:50:54;;;;;;;14.35;5.07;;;19.80;99.90;;;;;;5114966;28;20111;-79
2023/10/11 10:53:24;;;;;;;14.30;5.65;;;20.00;99.90;;;;;;5117406;28;20051;-81
2023/10/11 10:55:58;;;;;;;9.32;5.00;;;20.00;99.90;;;;;;5115932;28;20047;-79
2023/10/11 10:58:23;;;;;;;15.40;5.10;;;19.90;99.90;;;;;;5081425;28;20040;-79
2023/10/11 11:00:53;;;;;;;14.60;4.70;;;19.90;99.90;;;;;;5093334;28;20044;-79
2023/10/11 11:03:21;;;;;;;12.25;4.78;;;20.10;99.90;;;;;;5127357;28;20052;-79
2023/10/11 11:05:57;;;;;;;10.88;4.70;;;20.10;99.90;;;;;;5127334;28;20039;-81
2023/10/11 11:08:27;;;;;;;9.55;4.80;;;20.00;99.90;;;;;;5112165;28;20047;-80
2023/10/11 11:11:19;;;;;;;16.52;4.65;;;19.90;99.90;;;;;;5092273;28;20039;-80
2023/10/11 11:13:49;;;;;;;9.63;4.10;;;19.80;99.90;;;;;;5075270;28;20051;-80
2023/10/11 11:16:16;;;;;;;12.25;4.65;;;19.80;99.90;;;;;;5062714;28;20108;-80
2023/10/11 11:18:45;;;;;;;13.20;4.50;;;19.70;99.90;;;;;;5090507;28;20040;-82
2023/10/11 11:21:24;;;;;;;7.78;4.13;;;19.60;99.90;;;;;;5088661;28;20040;-81
2023/10/11 11:23:51;;;;;;;10.82;4.25;;;19.50;99.90;;;;;;5106597;27;20390;-81
2023/10/11 11:26:22;;;;;;;12.18;4.53;;;19.50;99.90;;;;;;5114097;28;20334;-79
2023/10/11 11:29:08;;;;;;;14.07;4.47;;;19.40;99.90;;;;;;5080058;28;20059;-80
2023/10/11 11:31:53;;;;;;;32.08;5.38;;;19.30;99.90;;;;;;5085244;28;20031;-80
2023/10/11 11:34:28;;;;;;;12.65;4.43;;;19.20;99.90;;;;;;5106129;27;20047;-80
2023/10/11 11:37:06;;;;;;;10.80;4.60;;;19.30;99.90;;;;;;5078355;28;20094;-80
2023/10/11 11:39:42;;;;;;;15.88;4.78;;;19.30;99.90;;;;;;5097362;28;20040;-80
2023/10/11 11:42:18;;;;;;;8.82;4.18;;;19.30;99.90;;;;;;5100743;28;20048;-81
2023/10/11 11:44:55;;;;;;;11.68;3.92;;;19.20;99.90;;;;;;5098297;28;20044;-79
2023/10/11 11:47:23;;;;;;;11.38;3.85;;;19.20;99.90;;;;;;5097628;28;20459;-81
2023/10/11 11:49:49;;;;;;;10.30;3.85;;;19.20;99.90;;;;;;5079704;28;20048;-80
2023/10/11 11:52:17;;;;;;;10.35;3.83;;;19.20;99.90;;;;;;5093040;28;20043;-80
2023/10/11 11:54:44;;;;;;;10.43;4.03;;;19.20;99.90;;;;;;5077303;28;20044;-80
2023/10/11 11:57:10;;;;;;;10.40;4.00;;;19.30;99.90;;;;;;5096086;28;20046;-79
2023/10/11 11:59:37;;;;;;;12.50;4.97;;;19.30;99.90;;;;;;5098268;28;20085;-81
2023/10/11 12:02:08;;;;;;;15.30;4.15;;;19.30;99.90;;;;;;5098407;28;20406;-79
2023/10/11 12:04:36;;;;;;;12.93;3.95;;;19.30;99.90;;;;;;5087165;28;20051;-81
2023/10/11 12:07:09;;;;;;;12.13;4.13;;;19.40;99.90;;;;;;5095490;28;20127;-80
2023/10/11 12:09:38;;;;;;;9.38;3.60;;;19.50;99.90;;;;;;5100345;28;20036;-81
2023/10/11 12:12:05;;;;;;;16.13;3.92;;;19.50;99.90;;;;;;5099244;28;20405;-82
2023/10/11 12:14:38;;;;;;;10.23;4.00;;;19.70;99.90;;;;;;5097924;28;20052;-80
2023/10/11 12:17:10;;;;;;;14.23;3.95;;;19.90;99.90;;;;;;5100934;28;20071;-81
2023/10/11 12:19:38;;;;;;;9.20;3.40;;;19.90;99.90;;;;;;5100678;28;20040;-78
2023/10/11 12:22:04;;;;;;;9.52;3.10;;;19.90;99.90;;;;;;5108216;28;20492;-81
2023/10/11 12:24:30;;;;;;;8.20;3.50;;;20.00;99.90;;;;;;5087607;28;20043;-82
2023/10/11 12:27:00;;;;;;;10.43;3.72;;;19.90;99.90;;;;;;5100429;28;20133;-82
2023/10/11 12:29:27;;;;;;;11.57;3.78;;;19.80;99.90;;;;;;5093748;28;20056;-81
2023/10/11 12:31:54;;;;;;;7.78;3.53;;;19.60;99.90;;;;;;5080016;28;20347;-81
2023/10/11 12:34:24;;;;;;;7.63;3.60;;;19.60;99.90;;;;;;5111284;28;20047;-82
2023/10/11 12:36:53;;;;;;;8.15;3.80;;;19.50;99.90;;;;;;5091909;28;20052;-80
2023/10/11 12:39:24;;;;;;;10.82;4.10;;;19.40;99.90;;;;;;5091758;28;20051;-82
2023/10/11 12:41:51;;;;;;;12.00;3.75;;;19.30;99.90;;;;;;5079969;28;20052;-80
2023/10/11 12:44:18;;;;;;;11.15;3.67;;;19.20;99.90;;;;;;5090926;28;20072;-81
2023/10/11 12:46:45;;;;;;;11.40;3.70;;;19.20;99.90;;;;;;5073497;28;20040;-80
2023/10/11 12:49:14;;;;;;;10.50;3.58;;;19.20;99.90;;;;;;5097457;28;20139;-79
2023/10/11 12:51:47;;;;;;;11.30;3.67;;;19.10;99.90;;;;;;5098719;28;20351;-80
2023/10/11 12:54:16;;;;;;;11.32;3.58;;;19.20;99.90;;;;;;5112486;28;20039;-80
2023/10/11 12:56:44;;;;;;;9.23;3.33;;;19.10;99.90;;;;;;5091547;28;20044;-80
2023/10/11 12:59:15;;;;;;;9.02;3.20;;;19.20;99.90;;;;;;5098098;28;20060;-81
2023/10/11 13:01:49;;;;;;;10.07;3.10;;;19.20;99.90;;;;;;5111048;28;20047;-79
2023/10/11 13:04:34;;;;;;;8.52;3.10;;;19.20;99.90;;;;;;5108961;28;20040;-79
2023/10/11 13:07:00;;;;;;;9.10;3.10;;;19.30;99.90;;;;;;5096610;28;20044;-80
2023/10/11 13:09:30;;;;;;;7.38;2.90;;;19.30;99.90;;;;;;5097233;28;20048;-80
2023/10/11 13:11:57;;;;;;;9.68;3.17;;;19.20;99.90;;;;;;5095400;28;20052;-78
2023/10/11 13:14:23;;;;;;;9.00;3.13;;;19.20;99.90;;;;;;5096488;28;20040;-79
2023/10/11 13:16:55;;;;;;;7.40;3.38;;;19.20;99.90;;;;;;5101145;28;20092;-78
2023/10/11 13:19:24;;;;;;;8.98;3.72;;;19.20;99.90;;;;;;5090081;28;20059;-79
2023/10/11 13:21:54;;;;;;;18.33;4.05;;;19.20;99.90;;;;;;5075001;28;20081;-79
2023/10/11 13:24:25;;;;;;;17.05;4.32;;;19.10;99.90;;;;;;5104537;28;20048;-79
2023/10/11 13:26:52;;;;;;;10.75;3.95;;;19.00;99.90;;;;;;5092495;28;20123;-79
2023/10/11 13:29:18;;;;;;;9.82;4.10;;;19.00;99.90;;;;;;5104130;28;20051;-77
2023/10/11 13:31:51;;;;;;;11.05;3.75;;;18.90;99.90;;;;;;5097531;28;20033;-79
2023/10/11 13:34:16;;;;;;;10.68;3.90;;;18.90;99.90;;;;;;5114425;28;20040;-79
2023/10/11 13:36:43;;;;;;;11.57;4.15;;;18.90;99.90;;;;;;5108874;28;20071;-80
2023/10/11 13:39:26;;;;;;;11.68;4.50;;;18.80;99.90;;;;;;5090451;28;20035;-80
2023/10/11 13:42:14;;;;;;;12.02;3.90;;;18.70;99.90;;;;;;5090805;28;20502;-79
2023/10/11 13:44:43;;;;;;;10.20;3.92;;;18.70;99.90;;;;;;5073485;28;20079;-78